Time;durP1;ratioP1;P1;durP2;ratioP2;P2;SDS_P1;SDS_P2;PMS_P1;PMS_P2;Temp;Humidity;BMP_temperature;BMP_pressure;BME280_temperature;BME280_humidity;BME280_pressure;Samples;Min_cycle;Max_cycle;Signal;HPM_P1;HPM_P2
2024/04/17 00:01:59;;;;;;;7.72;1.92;;;5.90;99.90;;;;;;5308525;27;20009;-70
2024/04/17 00:04:24;;;;;;;9.27;2.20;;;5.90;99.90;;;;;;5309011;27;20101;-70
2024/04/17 00:06:50;;;;;;;7.28;1.83;;;5.90;99.90;;;;;;5310611;27;20009;-70
2024/04/17 00:09:16;;;;;;;8.93;2.50;;;5.80;99.90;;;;;;5325732;21;20045;-74
2024/04/17 00:11:43;;;;;;;11.40;1.90;;;5.80;99.90;;;;;;5308705;27;20025;-74
2024/04/17 00:14:08;;;;;;;6.25;2.00;;;5.80;99.90;;;;;;5308444;27;20012;-74
2024/04/17 00:16:34;;;;;;;10.00;2.33;;;5.80;99.90;;;;;;5310549;27;20048;-74
2024/04/17 00:19:00;;;;;;;7.68;2.58;;;5.80;99.90;;;;;;5310568;26;20575;-74
2024/04/17 00:21:26;;;;;;;9.27;3.35;;;5.80;99.90;;;;;;5310249;26;20079;-74
2024/04/17 00:23:51;;;;;;;12.23;2.90;;;5.80;99.90;;;;;;5309963;26;20037;-74
2024/04/17 00:26:17;;;;;;;6.78;2.22;;;5.80;99.90;;;;;;5310347;27;20013;-74
2024/04/17 00:29:03;;;;;;;8.98;2.30;;;5.80;99.90;;;;;;5308961;26;20461;-74
2024/04/17 00:31:28;;;;;;;14.57;2.22;;;5.70;99.90;;;;;;5310125;27;20017;-74
2024/04/17 00:33:54;;;;;;;5.93;2.20;;;5.70;99.90;;;;;;5309881;26;20005;-74
2024/04/17 00:36:20;;;;;;;8.35;2.28;;;5.60;99.90;;;;;;5310351;26;20017;-74
2024/04/17 00:38:45;;;;;;;9.13;2.33;;;5.60;99.90;;;;;;5310228;27;20005;-74
2024/04/17 00:41:12;;;;;;;7.07;2.15;;;5.60;99.90;;;;;;5309732;26;20071;-74
2024/04/17 00:43:37;;;;;;;9.88;2.15;;;5.60;99.90;;;;;;5309769;27;20006;-73
2024/04/17 00:46:08;;;;;;;9.07;2.97;;;5.50;99.90;;;;;;5310036;26;20080;-74
2024/04/17 00:48:34;;;;;;;6.00;2.25;;;5.50;99.90;;;;;;5310139;26;20012;-74
2024/04/17 00:51:00;;;;;;;7.80;2.70;;;5.50;99.90;;;;;;5309821;26;20450;-74
2024/04/17 00:53:31;;;;;;;11.05;3.90;;;5.50;99.90;;;;;;5309538;26;20088;-74
2024/04/17 00:55:57;;;;;;;7.10;2.13;;;5.50;99.90;;;;;;5310054;26;20005;-74
2024/04/17 00:58:23;;;;;;;6.28;2.22;;;5.50;99.90;;;;;;5309976;27;20009;-74
2024/04/17 01:00:48;;;;;;;9.02;2.20;;;5.50;99.90;;;;;;5309993;26;20017;-74
2024/04/17 01:03:14;;;;;;;6.30;2.33;;;5.50;99.90;;;;;;5309898;27;20005;-74
2024/04/17 01:05:41;;;;;;;4.45;2.08;;;5.50;99.90;;;;;;5309442;26;20477;-74
2024/04/17 01:08:07;;;;;;;7.45;2.58;;;5.50;99.90;;;;;;5309659;26;20754;-74
2024/04/17 01:10:33;;;;;;;12.32;2.85;;;5.60;99.90;;;;;;5309449;26;20012;-74
2024/04/17 01:13:00;;;;;;;9.18;3.03;;;5.60;99.90;;;;;;5309899;26;20042;-74
2024/04/17 01:15:36;;;;;;;6.90;2.70;;;5.60;99.90;;;;;;5311650;26;20001;-74
2024/04/17 01:18:03;;;;;;;8.48;3.10;;;5.60;99.90;;;;;;5313057;26;20080;-74
2024/04/17 01:20:29;;;;;;;6.85;2.65;;;5.60;99.90;;;;;;5312601;26;20005;-75
2024/04/17 01:22:55;;;;;;;9.88;2.58;;;5.60;99.90;;;;;;5313068;26;20006;-75
2024/04/17 01:25:20;;;;;;;10.15;2.67;;;5.70;99.90;;;;;;5310695;27;20326;-75
2024/04/17 01:27:46;;;;;;;6.10;2.90;;;5.70;99.90;;;;;;5312902;27;20076;-75
2024/04/17 01:30:12;;;;;;;7.85;2.42;;;5.70;99.90;;;;;;5312460;26;20001;-75
2024/04/17 01:32:37;;;;;;;8.52;2.45;;;5.80;99.90;;;;;;5313228;26;20012;-75
2024/04/17 01:35:03;;;;;;;8.52;2.53;;;5.80;99.90;;;;;;5312263;26;20517;-75
2024/04/17 01:37:29;;;;;;;7.68;3.00;;;5.90;99.90;;;;;;5312807;26;20005;-75
2024/04/17 01:39:55;;;;;;;6.30;1.85;;;5.90;99.90;;;;;;5312155;26;20005;-78
2024/04/17 01:42:20;;;;;;;6.95;1.88;;;5.90;99.90;;;;;;5312954;26;20012;-75
2024/04/17 01:44:46;;;;;;;2.38;1.50;;;6.00;99.90;;;;;;5311819;27;20014;-75
2024/04/17 01:47:12;;;;;;;5.35;1.98;;;6.10;99.90;;;;;;5312673;27;20034;-75
2024/04/17 01:49:37;;;;;;;4.25;1.60;;;6.10;99.90;;;;;;5312757;26;20506;-75
2024/04/17 01:52:03;;;;;;;5.80;1.65;;;6.20;99.90;;;;;;5312218;27;20006;-75
2024/04/17 01:54:29;;;;;;;4.18;1.83;;;6.20;99.90;;;;;;5311882;26;20013;-75
2024/04/17 01:56:55;;;;;;;4.88;1.60;;;6.20;99.90;;;;;;5310536;27;20017;-75
2024/04/17 01:59:20;;;;;;;2.70;1.00;;;6.30;99.90;;;;;;5311006;27;20006;-75
2024/04/17 02:01:46;;;;;;;3.58;1.50;;;6.30;99.90;;;;;;5312248;26;19998;-76
2024/04/17 02:04:12;;;;;;;4.00;1.35;;;6.30;99.90;;;;;;5311813;26;20056;-75
2024/04/17 02:06:37;;;;;;;3.35;1.50;;;6.30;99.90;;;;;;5312441;26;20006;-75
2024/04/17 02:09:03;;;;;;;4.88;1.67;;;6.40;99.90;;;;;;5312252;27;20498;-75
2024/04/17 02:11:29;;;;;;;7.68;2.97;;;6.40;99.90;;;;;;5311961;26;20005;-75
2024/04/17 02:13:55;;;;;;;2.72;1.63;;;6.40;99.90;;;;;;5311586;27;20001;-75
2024/04/17 02:16:21;;;;;;;4.95;1.58;;;6.40;99.90;;;;;;5312209;27;20476;-75
2024/04/17 02:18:47;;;;;;;3.58;1.45;;;6.40;99.90;;;;;;5312204;26;20071;-75
2024/04/17 02:21:13;;;;;;;5.60;1.98;;;6.40;99.90;;;;;;5312213;26;20072;-75
2024/04/17 02:23:38;;;;;;;4.65;1.50;;;6.40;99.90;;;;;;5311659;26;20005;-75
2024/04/17 02:26:05;;;;;;;3.85;1.20;;;6.40;99.90;;;;;;5311243;27;20006;-75
2024/04/17 02:28:31;;;;;;;3.17;1.20;;;6.40;99.90;;;;;;5312147;26;20006;-75
2024/04/17 02:30:56;;;;;;;2.63;1.45;;;6.40;99.90;;;;;;5312028;27;20014;-75
2024/04/17 02:33:22;;;;;;;3.00;1.23;;;6.40;99.90;;;;;;5311917;26;20375;-75
2024/04/17 02:35:48;;;;;;;5.53;1.95;;;6.40;99.90;;;;;;5311897;26;20005;-75
2024/04/17 02:38:16;;;;;;;2.28;0.90;;;6.30;99.90;;;;;;5311991;27;20016;-75
2024/04/17 02:40:41;;;;;;;6.07;1.15;;;6.30;99.90;;;;;;5311713;26;20001;-75
2024/04/17 02:43:07;;;;;;;3.50;1.20;;;6.30;99.90;;;;;;5310304;27;20005;-75
2024/04/17 02:45:33;;;;;;;5.88;1.30;;;6.30;99.90;;;;;;5311235;27;20016;-75
2024/04/17 02:48:00;;;;;;;3.95;1.10;;;6.30;99.90;;;;;;5311970;27;20006;-75
2024/04/17 02:50:27;;;;;;;3.50;1.20;;;6.30;99.90;;;;;;5311543;27;20012;-75
2024/04/17 02:52:52;;;;;;;2.58;1.40;;;6.30;99.90;;;;;;5310414;27;20005;-75
2024/04/17 02:55:18;;;;;;;3.20;1.38;;;6.30;99.90;;;;;;5294604;27;20017;-75
2024/04/17 02:57:44;;;;;;;4.80;1.40;;;6.30;99.90;;;;;;5277501;27;20359;-75
2024/04/17 03:00:10;;;;;;;4.22;1.48;;;6.30;99.90;;;;;;5277450;27;20351;-75
2024/04/17 03:02:36;;;;;;;5.50;1.60;;;6.30;99.90;;;;;;5277514;27;20014;-75
2024/04/17 03:05:02;;;;;;;5.43;1.92;;;6.30;99.90;;;;;;5276804;27;20474;-75
2024/04/17 03:07:28;;;;;;;4.60;2.03;;;6.30;99.90;;;;;;5275785;27;20010;-75
2024/04/17 03:09:54;;;;;;;6.43;1.40;;;6.30;99.90;;;;;;5275298;27;20077;-75
2024/04/17 03:12:20;;;;;;;4.63;1.83;;;6.30;99.90;;;;;;5277342;27;20470;-75
2024/04/17 03:14:46;;;;;;;5.07;1.50;;;6.30;99.90;;;;;;5276751;27;20473;-75
2024/04/17 03:17:12;;;;;;;3.67;1.70;;;6.30;99.90;;;;;;5275673;27;20007;-75
2024/04/17 03:19:38;;;;;;;6.57;1.85;;;6.30;99.90;;;;;;5277223;27;20031;-75
2024/04/17 03:22:17;;;;;;;5.72;1.55;;;6.30;99.90;;;;;;5277331;27;20017;-75
2024/04/17 03:24:42;;;;;;;4.38;1.48;;;6.30;99.90;;;;;;5276506;27;20006;-75
2024/04/17 03:27:08;;;;;;;5.30;1.30;;;6.30;99.90;;;;;;5292690;27;20476;-75
2024/04/17 03:29:54;;;;;;;5.05;2.35;;;6.30;99.90;;;;;;5309532;27;20084;-76
2024/04/17 03:32:19;;;;;;;7.75;2.33;;;6.40;99.90;;;;;;5309529;27;20017;-75
2024/04/17 03:34:49;;;;;;;5.18;1.95;;;6.30;99.90;;;;;;5310690;26;20079;-75
2024/04/17 03:37:14;;;;;;;3.38;1.40;;;6.30;99.90;;;;;;5309451;27;20060;-76
2024/04/17 03:39:40;;;;;;;4.38;1.30;;;6.30;99.90;;;;;;5311082;26;20013;-75
2024/04/17 03:42:06;;;;;;;3.08;1.30;;;6.30;99.90;;;;;;5310889;26;20009;-75
2024/04/17 03:44:33;;;;;;;2.17;1.33;;;6.40;99.90;;;;;;5308958;27;20016;-75
2024/04/17 03:47:15;;;;;;;6.70;1.85;;;6.30;99.90;;;;;;5311250;26;20079;-75
2024/04/17 03:49:41;;;;;;;4.40;1.10;;;6.30;99.90;;;;;;5311144;26;20009;-75
2024/04/17 03:52:06;;;;;;;4.57;1.33;;;6.30;99.90;;;;;;5310719;26;20012;-75
2024/04/17 03:54:32;;;;;;;2.92;1.35;;;6.30;99.90;;;;;;5310521;26;20006;-75
2024/04/17 03:56:58;;;;;;;4.13;1.42;;;6.30;99.90;;;;;;5311558;26;20055;-75
2024/04/17 03:59:24;;;;;;;4.22;1.48;;;6.30;99.90;;;;;;5310892;27;20017;-75
2024/04/17 04:02:06;;;;;;;3.47;1.15;;;6.30;99.90;;;;;;5310712;27;20005;-75
2024/04/17 04:04:34;;;;;;;1.90;1.00;;;6.40;99.90;;;;;;5310254;27;20009;-75
2024/04/17 04:07:00;;;;;;;5.55;1.23;;;6.30;99.90;;;;;;5309067;27;20021;-75
2024/04/17 04:09:27;;;;;;;3.55;1.48;;;6.30;99.90;;;;;;5310482;27;20407;-76
2024/04/17 04:11:53;;;;;;;2.35;1.17;;;6.30;99.90;;;;;;5310644;27;20017;-75
2024/04/17 04:14:19;;;;;;;5.05;1.23;;;6.30;99.90;;;;;;5310299;27;20002;-75
2024/04/17 04:16:45;;;;;;;5.63;1.27;;;6.30;99.90;;;;;;5310740;26;20486;-75
2024/04/17 04:19:11;;;;;;;2.40;1.15;;;6.30;99.90;;;;;;5308945;27;20005;-75
2024/04/17 04:21:37;;;;;;;2.55;1.42;;;6.20;99.90;;;;;;5310574;26;20014;-75
2024/04/17 04:24:02;;;;;;;2.13;1.17;;;6.30;99.90;;;;;;5310011;26;20006;-75
2024/04/17 04:26:28;;;;;;;2.50;1.05;;;6.30;99.90;;;;;;5310633;27;20016;-75
2024/04/17 04:29:14;;;;;;;4.57;1.00;;;6.30;99.90;;;;;;5281660;26;20039;-75
2024/04/17 04:31:40;;;;;;;2.78;1.13;;;6.30;99.90;;;;;;5311735;26;20005;-75
2024/04/17 04:34:06;;;;;;;2.70;1.02;;;6.30;99.90;;;;;;5333440;26;20009;-76
2024/04/17 04:36:31;;;;;;;6.40;1.83;;;6.30;99.90;;;;;;5347551;26;20342;-75
2024/04/17 04:38:57;;;;;;;2.28;0.70;;;6.20;99.90;;;;;;5343407;26;20013;-75
2024/04/17 04:41:23;;;;;;;2.95;1.20;;;6.30;99.90;;;;;;5344688;26;20017;-75
2024/04/17 04:43:49;;;;;;;1.77;0.90;;;6.30;99.90;;;;;;5344923;26;20012;-75
2024/04/17 04:46:14;;;;;;;3.35;1.27;;;6.30;99.90;;;;;;5345084;26;20005;-75
2024/04/17 04:48:40;;;;;;;3.13;1.00;;;6.30;99.90;;;;;;5343868;26;20001;-75
2024/04/17 04:51:06;;;;;;;1.38;1.10;;;6.40;99.90;;;;;;5348308;26;20005;-76
2024/04/17 04:53:32;;;;;;;3.97;1.20;;;6.30;99.90;;;;;;5347617;26;20364;-76
2024/04/17 04:56:01;;;;;;;2.95;1.00;;;6.40;99.90;;;;;;5348242;26;20005;-76
2024/04/17 04:58:26;;;;;;;1.77;0.90;;;6.40;99.90;;;;;;5346570;26;20015;-76
2024/04/17 05:00:52;;;;;;;4.00;0.95;;;6.40;99.90;;;;;;5347348;26;20005;-76
2024/04/17 05:03:18;;;;;;;1.80;0.82;;;6.40;99.90;;;;;;5348023;26;20078;-76
2024/04/17 05:05:44;;;;;;;2.00;1.10;;;6.40;99.90;;;;;;5346912;26;20070;-76
2024/04/17 05:08:10;;;;;;;3.92;0.93;;;6.40;99.90;;;;;;5348006;26;20004;-76
2024/04/17 05:10:36;;;;;;;2.88;0.90;;;6.50;99.90;;;;;;5347177;26;20001;-76
2024/04/17 05:13:02;;;;;;;2.10;0.68;;;6.50;99.90;;;;;;5347783;26;20399;-76
2024/04/17 05:15:27;;;;;;;1.77;0.75;;;6.50;99.90;;;;;;5346939;26;20000;-76
2024/04/17 05:17:54;;;;;;;3.53;0.60;;;6.40;99.90;;;;;;5347574;26;20029;-76
2024/04/17 05:20:20;;;;;;;3.15;0.55;;;6.40;99.90;;;;;;5345479;26;20011;-76
2024/04/17 05:22:46;;;;;;;1.15;0.60;;;6.40;99.90;;;;;;5347461;26;20005;-76
2024/04/17 05:25:12;;;;;;;2.25;0.50;;;6.30;99.90;;;;;;5346767;26;20079;-76
2024/04/17 05:27:38;;;;;;;2.42;0.55;;;6.30;99.90;;;;;;5347307;26;20015;-76
2024/04/17 05:30:08;;;;;;;1.45;0.50;;;6.30;99.90;;;;;;5346860;26;20005;-75
2024/04/17 05:32:34;;;;;;;0.52;0.30;;;6.20;99.90;;;;;;5347334;26;20078;-75
2024/04/17 05:35:00;;;;;;;2.88;0.63;;;6.20;99.90;;;;;;5346621;26;20004;-76
2024/04/17 05:37:26;;;;;;;1.42;0.38;;;6.20;99.90;;;;;;5347267;26;20056;-76
2024/04/17 05:39:52;;;;;;;7.45;0.60;;;6.10;99.90;;;;;;5346940;26;20056;-75
2024/04/17 05:42:18;;;;;;;1.05;0.40;;;6.10;99.90;;;;;;5345451;26;20460;-75
2024/04/17 05:44:43;;;;;;;7.05;0.65;;;6.10;99.90;;;;;;5346725;26;20070;-76
2024/04/17 05:47:09;;;;;;;0.80;0.60;;;6.00;99.90;;;;;;5347262;26;20709;-76
2024/04/17 05:49:35;;;;;;;3.15;0.70;;;6.00;99.90;;;;;;5347087;26;20005;-76
2024/04/17 05:52:01;;;;;;;4.03;1.00;;;6.00;99.90;;;;;;5346847;26;20005;-76
2024/04/17 05:54:26;;;;;;;3.45;0.90;;;6.00;99.90;;;;;;5346539;26;20005;-76
2024/04/17 05:56:53;;;;;;;3.00;1.02;;;5.90;99.90;;;;;;5347302;26;20015;-76
2024/04/17 05:59:19;;;;;;;6.22;0.95;;;5.90;99.90;;;;;;5347157;26;20005;-75
2024/04/17 06:01:45;;;;;;;4.97;1.70;;;5.80;99.90;;;;;;5345395;26;20016;-76
2024/04/17 06:04:10;;;;;;;5.40;1.60;;;5.80;99.90;;;;;;5346388;26;20001;-76
2024/04/17 06:06:36;;;;;;;3.72;1.60;;;5.80;99.90;;;;;;5347203;26;20029;-76
2024/04/17 06:09:02;;;;;;;4.82;1.10;;;5.80;99.90;;;;;;5346721;26;20465;-76
2024/04/17 06:11:28;;;;;;;6.85;1.08;;;5.80;99.90;;;;;;5369989;21;20005;-71
2024/04/17 06:13:53;;;;;;;4.60;1.02;;;5.70;99.90;;;;;;5346100;26;20005;-71
2024/04/17 06:16:19;;;;;;;6.18;1.38;;;5.70;99.90;;;;;;5346693;26;20083;-69
2024/04/17 06:18:46;;;;;;;5.20;1.20;;;5.70;99.90;;;;;;5346686;26;20041;-69
2024/04/17 06:21:12;;;;;;;7.50;1.05;;;5.70;99.90;;;;;;5346001;26;20005;-71
2024/04/17 06:23:38;;;;;;;3.33;1.10;;;5.70;99.90;;;;;;5345887;26;20477;-72
2024/04/17 06:26:04;;;;;;;7.18;1.55;;;5.70;99.90;;;;;;5344817;26;20004;-71
2024/04/17 06:28:29;;;;;;;6.20;1.35;;;5.70;99.90;;;;;;5346457;26;20001;-72
2024/04/17 06:30:56;;;;;;;6.18;1.30;;;5.70;99.90;;;;;;5346232;26;20083;-72
2024/04/17 06:33:21;;;;;;;2.88;1.35;;;5.70;99.90;;;;;;5344590;26;20005;-72
2024/04/17 06:35:47;;;;;;;4.57;1.73;;;5.70;99.90;;;;;;5346446;26;20464;-72
2024/04/17 06:38:13;;;;;;;4.72;1.20;;;5.70;99.90;;;;;;5345019;26;20016;-72
2024/04/17 06:40:39;;;;;;;3.72;1.33;;;5.70;99.90;;;;;;5345979;26;20001;-72
2024/04/17 06:43:05;;;;;;;4.78;1.27;;;5.80;99.90;;;;;;5344586;26;20013;-72
2024/04/17 06:45:31;;;;;;;3.22;1.20;;;5.80;99.90;;;;;;5343815;26;20009;-70
2024/04/17 06:47:56;;;;;;;4.22;1.40;;;5.80;99.90;;;;;;5346272;26;20016;-71
2024/04/17 06:50:22;;;;;;;5.65;2.28;;;5.70;99.90;;;;;;5345951;26;20079;-71
2024/04/17 06:52:48;;;;;;;3.08;1.08;;;5.80;99.90;;;;;;5344582;26;20005;-71
2024/04/17 06:55:14;;;;;;;4.50;1.17;;;5.80;99.90;;;;;;5345728;26;20450;-71
2024/04/17 06:57:39;;;;;;;10.32;1.38;;;5.80;99.90;;;;;;5346070;26;20012;-71
2024/04/17 07:00:06;;;;;;;7.05;1.10;;;5.90;99.90;;;;;;5345859;26;20016;-71
2024/04/17 07:02:32;;;;;;;3.13;1.30;;;5.80;99.90;;;;;;5345917;26;20005;-71
2024/04/17 07:04:58;;;;;;;4.80;1.23;;;5.80;99.90;;;;;;5343759;26;20078;-71
2024/04/17 07:07:24;;;;;;;4.78;1.20;;;5.90;99.90;;;;;;5346079;26;20411;-71
2024/04/17 07:09:49;;;;;;;4.18;1.30;;;5.80;99.90;;;;;;5345682;26;20016;-71
2024/04/17 07:12:16;;;;;;;3.65;1.80;;;5.90;99.90;;;;;;5345521;26;20005;-71
2024/04/17 07:14:42;;;;;;;3.65;1.10;;;5.90;99.90;;;;;;5343644;26;20473;-71
2024/04/17 07:17:07;;;;;;;6.85;1.20;;;5.70;99.90;;;;;;5345905;26;20015;-71
2024/04/17 07:19:34;;;;;;;3.22;1.00;;;5.60;99.90;;;;;;5344246;26;20377;-71
2024/04/17 07:22:00;;;;;;;6.95;1.77;;;5.70;99.90;;;;;;5345588;26;20004;-71
2024/04/17 07:24:25;;;;;;;6.05;1.48;;;5.60;99.90;;;;;;5343318;26;20001;-71
2024/04/17 07:26:52;;;;;;;5.22;1.55;;;5.70;99.90;;;;;;5345435;26;20009;-71
2024/04/17 07:29:18;;;;;;;10.45;1.48;;;5.50;99.90;;;;;;5345362;26;20024;-71
2024/04/17 07:31:44;;;;;;;5.22;1.67;;;5.50;99.90;;;;;;5344798;26;20025;-69
2024/04/17 07:34:10;;;;;;;4.47;2.15;;;5.50;99.90;;;;;;5344614;26;20443;-69
2024/04/17 07:36:36;;;;;;;2.58;1.35;;;5.60;99.90;;;;;;5344631;26;20009;-70
2024/04/17 07:39:02;;;;;;;6.32;1.23;;;5.60;99.90;;;;;;5339863;26;20009;-69
2024/04/17 07:41:28;;;;;;;5.50;1.40;;;5.60;99.90;;;;;;5344091;26;20086;-69
2024/04/17 07:43:56;;;;;;;3.08;1.30;;;5.60;99.90;;;;;;5344578;26;20013;-69
2024/04/17 07:46:21;;;;;;;4.57;1.50;;;5.70;99.90;;;;;;5345635;26;20005;-69
2024/04/17 07:48:47;;;;;;;5.25;1.52;;;5.80;99.90;;;;;;5343833;26;20001;-69
2024/04/17 07:51:13;;;;;;;8.90;2.20;;;6.00;99.90;;;;;;5344817;26;20015;-69
2024/04/17 07:53:39;;;;;;;1.92;1.02;;;6.10;99.90;;;;;;5344742;26;20464;-69
2024/04/17 07:56:05;;;;;;;4.00;1.33;;;6.20;99.90;;;;;;5343806;26;20005;-70
2024/04/17 07:58:31;;;;;;;4.75;1.45;;;6.20;99.90;;;;;;5345441;26;20004;-70
2024/04/17 08:00:57;;;;;;;2.75;1.35;;;6.40;99.90;;;;;;5343523;26;20476;-70
2024/04/17 08:03:23;;;;;;;4.15;1.50;;;6.50;99.90;;;;;;5344845;26;20005;-70
2024/04/17 08:05:48;;;;;;;4.90;1.25;;;6.70;99.90;;;;;;5344725;26;20012;-70
2024/04/17 08:08:14;;;;;;;4.90;1.65;;;6.80;99.90;;;;;;5345161;26;20373;-70
2024/04/17 08:10:40;;;;;;;6.45;1.60;;;6.80;99.90;;;;;;5344506;26;20009;-70
2024/04/17 08:13:12;;;;;;;4.07;1.88;;;6.90;99.90;;;;;;5345183;26;20020;-70
2024/04/17 08:15:42;;;;;;;5.88;1.13;;;7.00;99.90;;;;;;5344753;26;20001;-70
2024/04/17 08:18:08;;;;;;;5.15;1.33;;;7.00;99.90;;;;;;5345062;26;20100;-69
2024/04/17 08:20:34;;;;;;;6.63;1.65;;;7.00;99.90;;;;;;5344546;26;20011;-70
2024/04/17 08:23:00;;;;;;;6.75;1.27;;;7.10;99.90;;;;;;5343177;26;20020;-69
2024/04/17 08:25:26;;;;;;;4.68;1.10;;;7.10;99.90;;;;;;5342079;26;20009;-70
2024/04/17 08:27:51;;;;;;;4.95;1.23;;;7.20;99.90;;;;;;5344814;26;20009;-70
2024/04/17 08:30:17;;;;;;;5.82;1.67;;;7.20;99.90;;;;;;5344391;26;20013;-71
2024/04/17 08:32:45;;;;;;;4.00;1.00;;;7.20;99.90;;;;;;5345026;26;20082;-70
2024/04/17 08:35:10;;;;;;;4.57;2.30;;;7.30;99.90;;;;;;5344180;26;20013;-70
2024/04/17 08:37:36;;;;;;;4.95;1.17;;;7.30;99.90;;;;;;5344726;26;20074;-70
2024/04/17 08:40:03;;;;;;;3.13;1.85;;;7.40;99.90;;;;;;5342890;26;20078;-70
2024/04/17 08:42:32;;;;;;;3.38;1.42;;;7.40;99.90;;;;;;5344680;26;20005;-70
2024/04/17 08:45:06;;;;;;;7.63;1.73;;;7.50;99.90;;;;;;5342262;26;20083;-70
2024/04/17 08:47:34;;;;;;;3.05;1.23;;;7.50;99.90;;;;;;5343091;26;20032;-70
2024/04/17 08:50:00;;;;;;;5.22;1.67;;;7.50;99.90;;;;;;5344215;26;20073;-70
2024/04/17 08:52:27;;;;;;;3.13;1.67;;;7.60;99.90;;;;;;5343736;26;20004;-70
2024/04/17 08:54:55;;;;;;;5.40;2.15;;;8.00;99.90;;;;;;5340917;26;20009;-71
2024/04/17 08:57:22;;;;;;;10.30;3.13;;;8.40;99.90;;;;;;5344496;26;20001;-70
2024/04/17 08:59:47;;;;;;;4.75;2.17;;;8.70;99.90;;;;;;5344184;26;20005;-71
2024/04/17 09:02:14;;;;;;;4.00;1.60;;;9.00;99.90;;;;;;5344269;26;20059;-70
2024/04/17 09:04:44;;;;;;;9.50;2.17;;;9.40;99.90;;;;;;5340379;26;20082;-71
2024/04/17 09:07:10;;;;;;;5.78;1.63;;;9.90;99.90;;;;;;5343633;26;20083;-71
2024/04/17 09:09:38;;;;;;;11.20;1.70;;;10.20;99.90;;;;;;5344020;26;20009;-70
2024/04/17 09:12:05;;;;;;;8.05;1.42;;;10.50;99.90;;;;;;5344110;26;20004;-70
2024/04/17 09:14:31;;;;;;;4.22;1.25;;;10.40;99.90;;;;;;5341790;26;20074;-71
2024/04/17 09:16:57;;;;;;;5.75;1.75;;;10.20;99.90;;;;;;5343965;26;20433;-71
2024/04/17 09:19:23;;;;;;;5.15;1.50;;;9.70;99.90;;;;;;5343954;26;20001;-70
2024/04/17 09:21:51;;;;;;;10.90;1.90;;;9.90;99.90;;;;;;5343696;26;20040;-70
2024/04/17 09:24:17;;;;;;;7.53;1.90;;;9.80;99.90;;;;;;5343321;26;20015;-70
2024/04/17 09:26:44;;;;;;;9.95;3.55;;;9.80;99.90;;;;;;5342278;26;20453;-70
2024/04/17 09:29:10;;;;;;;9.88;1.77;;;9.60;99.90;;;;;;5343784;26;20020;-70
2024/04/17 09:31:35;;;;;;;9.35;2.10;;;9.90;99.90;;;;;;5341663;26;20453;-71
2024/04/17 09:34:01;;;;;;;7.22;1.88;;;9.80;99.90;;;;;;5343129;26;20079;-71
2024/04/17 09:36:27;;;;;;;4.88;1.73;;;9.70;99.90;;;;;;5346569;26;20415;-70
2024/04/17 09:38:56;;;;;;;5.70;1.20;;;9.70;99.90;;;;;;5347198;26;20037;-70
2024/04/17 09:41:23;;;;;;;3.83;1.45;;;9.70;99.90;;;;;;5345127;26;20084;-70
2024/04/17 09:43:56;;;;;;;4.90;1.80;;;9.80;99.90;;;;;;5345161;26;20015;-70
2024/04/17 09:46:24;;;;;;;6.55;1.67;;;10.10;99.90;;;;;;5347346;26;20009;-71
2024/04/17 09:48:53;;;;;;;7.05;1.98;;;10.30;99.90;;;;;;5345431;26;20065;-71
2024/04/17 09:51:21;;;;;;;6.22;1.50;;;10.20;99.90;;;;;;5347187;26;20355;-71
2024/04/17 09:53:59;;;;;;;6.82;1.92;;;10.40;99.90;;;;;;5346509;26;20001;-71
2024/04/17 09:56:26;;;;;;;7.78;1.63;;;10.20;99.90;;;;;;5345302;26;20016;-71
2024/04/17 09:58:53;;;;;;;8.98;1.52;;;10.10;99.90;;;;;;5344360;26;20397;-71
2024/04/17 10:01:21;;;;;;;5.88;1.33;;;9.80;99.90;;;;;;5345635;26;20019;-71
2024/04/17 10:03:49;;;;;;;8.85;1.50;;;9.70;99.90;;;;;;5345679;26;20005;-71
2024/04/17 10:06:15;;;;;;;2.22;0.80;;;9.60;99.90;;;;;;5346124;26;20009;-70
2024/04/17 10:08:42;;;;;;;6.68;1.92;;;9.70;99.90;;;;;;5346870;26;20015;-71
2024/04/17 10:11:09;;;;;;;6.80;1.42;;;9.60;99.90;;;;;;5346326;26;20041;-70
2024/04/17 10:13:35;;;;;;;6.93;1.25;;;9.70;99.90;;;;;;5346151;26;20005;-70
2024/04/17 10:16:01;;;;;;;5.57;1.00;;;9.90;99.90;;;;;;5346429;26;20054;-71
2024/04/17 10:18:27;;;;;;;6.68;0.95;;;10.10;99.90;;;;;;5346736;26;20476;-70
2024/04/17 10:20:54;;;;;;;3.88;0.85;;;9.80;99.90;;;;;;5346707;26;20016;-70
2024/04/17 10:23:26;;;;;;;4.40;0.73;;;10.00;99.90;;;;;;5346771;26;20004;-70
2024/04/17 10:25:56;;;;;;;10.52;1.25;;;10.00;99.90;;;;;;5346585;26;20005;-71
2024/04/17 10:28:24;;;;;;;3.47;0.75;;;10.30;99.90;;;;;;5346543;26;20005;-70
2024/04/17 10:30:51;;;;;;;1.75;0.80;;;10.10;99.90;;;;;;5346234;26;20029;-70
2024/04/17 10:33:36;;;;;;;5.80;1.00;;;10.00;99.90;;;;;;5346626;26;20015;-70
2024/04/17 10:36:06;;;;;;;3.92;0.98;;;9.80;99.90;;;;;;5346644;26;20005;-70
2024/04/17 10:38:33;;;;;;;8.40;1.17;;;9.80;99.90;;;;;;5346754;26;20078;-69
2024/04/17 10:41:01;;;;;;;7.55;1.40;;;9.70;99.90;;;;;;5346058;26;20011;-69
2024/04/17 10:43:30;;;;;;;3.53;0.80;;;9.50;99.90;;;;;;5345820;26;20013;-69
2024/04/17 10:46:04;;;;;;;7.95;1.17;;;9.30;99.90;;;;;;5346323;26;20024;-70
2024/04/17 10:48:30;;;;;;;7.20;1.48;;;9.10;99.90;;;;;;5344443;26;20051;-72
2024/04/17 10:50:56;;;;;;;5.50;1.00;;;9.40;99.90;;;;;;5344844;26;20016;-72
2024/04/17 10:53:22;;;;;;;6.07;1.17;;;9.70;99.90;;;;;;5345791;26;20009;-69
2024/04/17 10:55:53;;;;;;;3.60;1.40;;;10.00;99.90;;;;;;5345381;26;20024;-69
2024/04/17 10:58:19;;;;;;;11.18;1.60;;;10.20;99.90;;;;;;5346113;26;20001;-69
2024/04/17 11:00:45;;;;;;;4.00;1.38;;;10.30;99.90;;;;;;5344261;26;20535;-70
2024/04/17 11:03:11;;;;;;;5.75;1.13;;;10.10;99.90;;;;;;5345806;26;20005;-69
2024/04/17 11:05:37;;;;;;;4.57;0.85;;;9.70;99.90;;;;;;5343671;26;20005;-70
2024/04/17 11:08:03;;;;;;;3.70;0.90;;;9.60;99.90;;;;;;5345375;26;20092;-70
2024/04/17 11:10:29;;;;;;;4.65;0.82;;;9.60;99.90;;;;;;5343836;26;20015;-70
2024/04/17 11:12:55;;;;;;;2.55;0.85;;;9.50;99.90;;;;;;5345880;26;20005;-70
2024/04/17 11:15:20;;;;;;;3.90;0.90;;;9.60;99.90;;;;;;5345380;26;20001;-71
2024/04/17 11:17:46;;;;;;;5.93;0.93;;;9.70;99.90;;;;;;5345744;26;20040;-72
2024/04/17 11:20:12;;;;;;;3.45;1.38;;;9.80;99.90;;;;;;5345368;26;20015;-72
2024/04/17 11:22:39;;;;;;;4.78;0.70;;;10.00;99.90;;;;;;5344186;26;20004;-72
2024/04/17 11:25:13;;;;;;;7.85;1.02;;;10.20;99.90;;;;;;5343439;26;19997;-72
2024/04/17 11:27:39;;;;;;;;;;;10.40;99.90;;;;;;5346298;26;20045;-72
2024/04/17 11:30:18;;;;;;;3.72;1.15;;;10.40;99.90;;;;;;5345292;26;19926;-71
2024/04/17 11:32:44;;;;;;;4.53;1.50;;;10.30;99.90;;;;;;5344011;26;20079;-71
2024/04/17 11:35:15;;;;;;;3.30;0.70;;;10.30;99.90;;;;;;5343594;26;20530;-71
2024/04/17 11:37:44;;;;;;;3.75;1.27;;;10.30;99.90;;;;;;5345530;26;20005;-71
2024/04/17 11:40:10;;;;;;;4.35;0.73;;;10.60;99.90;;;;;;5345044;26;20001;-72
2024/04/17 11:42:41;;;;;;;2.70;1.02;;;10.50;99.50;;;;;;5345531;26;20364;-71
2024/04/17 11:45:13;;;;;;;4.32;0.70;;;10.30;98.00;;;;;;5344820;26;20005;-71
2024/04/17 11:47:40;;;;;;;4.65;0.73;;;10.50;99.90;;;;;;5345593;26;20005;-71
2024/04/17 11:50:09;;;;;;;4.05;0.80;;;10.60;99.90;;;;;;5344818;26;20009;-71
2024/04/17 11:52:35;;;;;;;4.30;0.82;;;10.70;99.90;;;;;;5344858;26;20023;-71
2024/04/17 11:55:01;;;;;;;2.83;0.60;;;10.70;99.90;;;;;;5344811;26;20005;-71
2024/04/17 11:57:28;;;;;;;5.68;0.77;;;10.80;99.30;;;;;;5345156;26;20011;-72
2024/04/17 11:59:57;;;;;;;10.23;1.40;;;10.70;97.90;;;;;;5342661;26;20005;-72
2024/04/17 12:02:23;;;;;;;4.47;0.77;;;10.70;96.80;;;;;;5344726;26;20468;-72
2024/04/17 12:04:49;;;;;;;4.80;0.85;;;10.80;98.60;;;;;;5343682;26;20008;-72
2024/04/17 12:07:15;;;;;;;2.72;0.63;;;10.70;98.10;;;;;;5344464;26;20005;-72
2024/04/17 12:09:47;;;;;;;6.22;1.05;;;10.40;96.60;;;;;;5339644;26;20020;-72
2024/04/17 12:12:13;;;;;;;8.32;1.40;;;10.30;95.00;;;;;;5356894;21;20005;-76
2024/04/17 12:14:39;;;;;;;4.97;1.55;;;10.20;95.20;;;;;;5319325;26;20375;-75
2024/04/17 12:17:07;;;;;;;8.55;2.22;;;10.20;95.00;;;;;;5308932;27;20005;-76
2024/04/17 12:19:33;;;;;;;14.98;5.22;;;10.10;93.40;;;;;;5343242;26;20086;-76
2024/04/17 12:21:59;;;;;;;10.57;2.22;;;10.20;96.50;;;;;;5339241;26;20016;-76
2024/04/17 12:26:49;;;;;;;4.43;1.42;;;10.20;94.90;;;;;;5343302;26;20013;-76
2024/04/17 12:27:12;;;;;;;6.55;2.28;;;10.40;97.70;;;;;;5345194;26;20029;-76
2024/04/17 12:29:37;;;;;;;7.97;2.33;;;10.50;99.90;;;;;;5345012;26;20016;-76
2024/04/17 12:32:03;;;;;;;9.25;1.88;;;10.30;97.30;;;;;;5344472;26;20054;-76
2024/04/17 12:34:29;;;;;;;6.72;1.17;;;10.50;98.00;;;;;;5343506;26;20029;-76
2024/04/17 12:36:55;;;;;;;8.07;1.42;;;10.50;99.60;;;;;;5344345;26;20495;-76
2024/04/17 12:39:21;;;;;;;5.10;2.17;;;10.50;99.80;;;;;;5344298;26;20039;-76
2024/04/17 12:41:47;;;;;;;7.90;1.75;;;10.40;97.40;;;;;;5343489;26;20020;-76
2024/04/17 12:44:13;;;;;;;7.45;1.73;;;10.40;98.80;;;;;;5343553;26;20009;-76
2024/04/17 12:46:38;;;;;;;7.10;1.63;;;10.40;99.70;;;;;;5344017;26;20009;-76
2024/04/17 12:49:05;;;;;;;4.18;1.45;;;10.40;98.70;;;;;;5344184;26;20020;-76
2024/04/17 12:51:31;;;;;;;4.07;1.17;;;10.60;98.70;;;;;;5344271;26;20009;-77
2024/04/17 12:53:57;;;;;;;9.75;1.77;;;10.60;95.90;;;;;;5344097;26;20016;-74